sensor_id;sensor_type;location;lat;lon;timestamp;P1;durP1;ratioP1;P2;durP2;ratioP2
37237;SDS011;23129;49.662;8.448;2023-04-12T00:00:06;6.97;;;2.00;;
37237;SDS011;23129;49.662;8.448;2023-04-12T00:02:37;4.43;;;2.00;;
37237;SDS011;23129;49.662;8.448;2023-04-12T00:05:08;7.43;;;2.53;;
37237;SDS011;23129;49.662;8.448;2023-04-12T00:07:37;4.95;;;1.77;;
37237;SDS011;23129;49.662;8.448;2023-04-12T00:10:08;16.63;;;2.58;;
37237;SDS011;23129;49.662;8.448;2023-04-12T00:12:37;8.73;;;2.00;;
37237;SDS011;23129;49.662;8.448;2023-04-12T00:15:06;15.40;;;3.08;;
37237;SDS011;23129;49.662;8.448;2023-04-12T00:17:36;8.07;;;2.10;;
37237;SDS011;23129;49.662;8.448;2023-04-12T00:20:05;6.32;;;2.58;;
37237;SDS011;23129;49.662;8.448;2023-04-12T00:22:38;7.18;;;1.73;;
37237;SDS011;23129;49.662;8.448;2023-04-12T00:25:08;3.97;;;1.42;;
37237;SDS011;23129;49.662;8.448;2023-04-12T00:27:36;6.55;;;1.42;;
37237;SDS011;23129;49.662;8.448;2023-04-12T00:30:06;4.22;;;1.77;;
37237;SDS011;23129;49.662;8.448;2023-04-12T00:32:35;9.13;;;2.15;;
37237;SDS011;23129;49.662;8.448;2023-04-12T00:35:03;3.70;;;1.52;;
37237;SDS011;23129;49.662;8.448;2023-04-12T00:37:33;5.10;;;2.00;;
37237;SDS011;23129;49.662;8.448;2023-04-12T00:40:05;7.35;;;1.52;;
37237;SDS011;23129;49.662;8.448;2023-04-12T00:42:35;6.53;;;2.03;;
37237;SDS011;23129;49.662;8.448;2023-04-12T00:45:04;3.58;;;1.60;;
37237;SDS011;23129;49.662;8.448;2023-04-12T00:47:35;5.78;;;1.83;;
37237;SDS011;23129;49.662;8.448;2023-04-12T00:50:05;4.15;;;1.13;;
37237;SDS011;23129;49.662;8.448;2023-04-12T00:52:34;6.20;;;2.17;;
37237;SDS011;23129;49.662;8.448;2023-04-12T00:55:06;5.10;;;1.90;;
37237;SDS011;23129;49.662;8.448;2023-04-12T00:57:36;3.53;;;1.73;;
37237;SDS011;23129;49.662;8.448;2023-04-12T01:00:07;10.45;;;1.75;;
37237;SDS011;23129;49.662;8.448;2023-04-12T01:02:39;2.00;;;1.52;;
37237;SDS011;23129;49.662;8.448;2023-04-12T01:05:13;9.07;;;1.52;;
37237;SDS011;23129;49.662;8.448;2023-04-12T01:07:54;3.55;;;1.90;;
37237;SDS011;23129;49.662;8.448;2023-04-12T01:10:36;8.60;;;2.60;;
37237;SDS011;23129;49.662;8.448;2023-04-12T01:13:15;4.15;;;1.60;;
37237;SDS011;23129;49.662;8.448;2023-04-12T01:15:57;2.83;;;1.67;;
37237;SDS011;23129;49.662;8.448;2023-04-12T01:18:35;5.40;;;1.77;;
37237;SDS011;23129;49.662;8.448;2023-04-12T01:21:12;5.72;;;1.70;;
37237;SDS011;23129;49.662;8.448;2023-04-12T01:23:50;14.18;;;2.97;;
37237;SDS011;23129;49.662;8.448;2023-04-12T01:26:33;6.70;;;2.13;;
37237;SDS011;23129;49.662;8.448;2023-04-12T01:29:10;10.25;;;2.33;;
37237;SDS011;23129;49.662;8.448;2023-04-12T01:31:46;5.38;;;2.05;;
37237;SDS011;23129;49.662;8.448;2023-04-12T01:34:21;1.80;;;1.63;;
37237;SDS011;23129;49.662;8.448;2023-04-12T01:36:51;2.60;;;1.75;;
37237;SDS011;23129;49.662;8.448;2023-04-12T01:39:21;4.28;;;2.22;;
37237;SDS011;23129;49.662;8.448;2023-04-12T01:41:50;5.70;;;1.77;;
37237;SDS011;23129;49.662;8.448;2023-04-12T01:44:20;5.63;;;2.25;;
37237;SDS011;23129;49.662;8.448;2023-04-12T01:46:50;2.70;;;1.83;;
37237;SDS011;23129;49.662;8.448;2023-04-12T01:49:19;10.50;;;1.60;;
37237;SDS011;23129;49.662;8.448;2023-04-12T01:51:54;5.25;;;2.17;;
37237;SDS011;23129;49.662;8.448;2023-04-12T01:54:33;2.75;;;1.60;;
37237;SDS011;23129;49.662;8.448;2023-04-12T01:57:05;7.85;;;1.77;;
37237;SDS011;23129;49.662;8.448;2023-04-12T01:59:38;6.65;;;1.70;;
37237;SDS011;23129;49.662;8.448;2023-04-12T02:02:08;13.57;;;2.25;;
37237;SDS011;23129;49.662;8.448;2023-04-12T02:04:38;4.07;;;1.92;;
37237;SDS011;23129;49.662;8.448;2023-04-12T02:07:07;12.55;;;2.28;;
37237;SDS011;23129;49.662;8.448;2023-04-12T02:09:37;1.15;;;1.05;;
37237;SDS011;23129;49.662;8.448;2023-04-12T02:12:06;2.38;;;1.20;;
37237;SDS011;23129;49.662;8.448;2023-04-12T02:14:36;2.35;;;1.10;;
37237;SDS011;23129;49.662;8.448;2023-04-12T02:17:05;3.75;;;1.40;;
37237;SDS011;23129;49.662;8.448;2023-04-12T02:19:35;2.75;;;1.50;;
37237;SDS011;23129;49.662;8.448;2023-04-12T02:22:04;11.70;;;1.80;;
37237;SDS011;23129;49.662;8.448;2023-04-12T02:24:33;4.38;;;1.88;;
37237;SDS011;23129;49.662;8.448;2023-04-12T02:27:02;2.33;;;1.35;;
37237;SDS011;23129;49.662;8.448;2023-04-12T02:29:31;5.47;;;1.77;;
37237;SDS011;23129;49.662;8.448;2023-04-12T02:32:01;11.23;;;2.78;;
37237;SDS011;23129;49.662;8.448;2023-04-12T02:34:30;2.63;;;1.92;;
37237;SDS011;23129;49.662;8.448;2023-04-12T02:37:13;7.65;;;2.03;;
37237;SDS011;23129;49.662;8.448;2023-04-12T02:39:43;7.07;;;3.17;;
37237;SDS011;23129;49.662;8.448;2023-04-12T02:42:12;4.97;;;1.63;;
37237;SDS011;23129;49.662;8.448;2023-04-12T02:44:41;3.72;;;1.42;;
37237;SDS011;23129;49.662;8.448;2023-04-12T02:47:15;4.50;;;1.65;;
37237;SDS011;23129;49.662;8.448;2023-04-12T02:49:46;12.10;;;2.42;;
37237;SDS011;23129;49.662;8.448;2023-04-12T02:52:17;4.10;;;2.30;;
37237;SDS011;23129;49.662;8.448;2023-04-12T02:54:58;4.45;;;2.20;;
37237;SDS011;23129;49.662;8.448;2023-04-12T02:57:27;4.57;;;1.73;;
37237;SDS011;23129;49.662;8.448;2023-04-12T02:59:56;3.08;;;1.70;;
37237;SDS011;23129;49.662;8.448;2023-04-12T03:02:46;3.70;;;1.73;;
37237;SDS011;23129;49.662;8.448;2023-04-12T03:05:22;6.85;;;2.28;;
37237;SDS011;23129;49.662;8.448;2023-04-12T03:07:51;7.20;;;2.80;;
37237;SDS011;23129;49.662;8.448;2023-04-12T03:10:26;8.68;;;1.35;;
37237;SDS011;23129;49.662;8.448;2023-04-12T03:13:00;4.70;;;1.77;;
37237;SDS011;23129;49.662;8.448;2023-04-12T03:15:48;3.33;;;1.73;;
37237;SDS011;23129;49.662;8.448;2023-04-12T03:18:26;2.78;;;2.22;;
37237;SDS011;23129;49.662;8.448;2023-04-12T03:20:55;13.30;;;2.75;;
37237;SDS011;23129;49.662;8.448;2023-04-12T03:23:23;5.45;;;2.33;;
37237;SDS011;23129;49.662;8.448;2023-04-12T03:26:04;4.50;;;2.42;;
37237;SDS011;23129;49.662;8.448;2023-04-12T03:28:34;7.38;;;2.47;;
37237;SDS011;23129;49.662;8.448;2023-04-12T03:31:04;3.17;;;2.80;;
37237;SDS011;23129;49.662;8.448;2023-04-12T03:33:39;2.50;;;2.20;;
37237;SDS011;23129;49.662;8.448;2023-04-12T03:36:18;10.90;;;3.33;;
37237;SDS011;23129;49.662;8.448;2023-04-12T03:38:53;5.65;;;2.03;;
37237;SDS011;23129;49.662;8.448;2023-04-12T03:41:22;14.50;;;4.20;;
37237;SDS011;23129;49.662;8.448;2023-04-12T03:43:52;3.90;;;2.40;;
37237;SDS011;23129;49.662;8.448;2023-04-12T03:46:21;2.08;;;1.88;;
37237;SDS011;23129;49.662;8.448;2023-04-12T03:48:56;3.40;;;2.00;;
37237;SDS011;23129;49.662;8.448;2023-04-12T03:51:25;2.97;;;2.10;;
37237;SDS011;23129;49.662;8.448;2023-04-12T03:53:59;3.00;;;2.10;;
37237;SDS011;23129;49.662;8.448;2023-04-12T03:56:39;3.30;;;2.10;;
37237;SDS011;23129;49.662;8.448;2023-04-12T03:59:18;4.40;;;1.70;;
37237;SDS011;23129;49.662;8.448;2023-04-12T04:01:48;5.20;;;2.10;;
37237;SDS011;23129;49.662;8.448;2023-04-12T04:04:19;2.35;;;1.58;;
37237;SDS011;23129;49.662;8.448;2023-04-12T04:06:52;3.55;;;1.55;;
37237;SDS011;23129;49.662;8.448;2023-04-12T04:09:23;3.67;;;1.63;;
37237;SDS011;23129;49.662;8.448;2023-04-12T04:11:52;15.70;;;2.38;;
37237;SDS011;23129;49.662;8.448;2023-04-12T04:14:21;4.85;;;1.63;;
37237;SDS011;23129;49.662;8.448;2023-04-12T04:16:50;5.80;;;1.55;;
37237;SDS011;23129;49.662;8.448;2023-04-12T04:19:21;3.45;;;1.63;;
37237;SDS011;23129;49.662;8.448;2023-04-12T04:21:50;1.35;;;1.10;;
37237;SDS011;23129;49.662;8.448;2023-04-12T04:24:18;5.20;;;1.60;;
37237;SDS011;23129;49.662;8.448;2023-04-12T04:26:50;5.78;;;1.50;;
37237;SDS011;23129;49.662;8.448;2023-04-12T04:29:24;1.40;;;1.02;;
37237;SDS011;23129;49.662;8.448;2023-04-12T04:31:59;2.97;;;1.33;;
37237;SDS011;23129;49.662;8.448;2023-04-12T04:34:30;4.03;;;1.10;;
37237;SDS011;23129;49.662;8.448;2023-04-12T04:37:07;6.40;;;1.52;;
37237;SDS011;23129;49.662;8.448;2023-04-12T04:39:40;1.75;;;0.95;;
37237;SDS011;23129;49.662;8.448;2023-04-12T04:42:10;2.20;;;1.05;;
37237;SDS011;23129;49.662;8.448;2023-04-12T04:44:49;2.67;;;1.20;;
37237;SDS011;23129;49.662;8.448;2023-04-12T04:47:18;8.48;;;1.50;;
37237;SDS011;23129;49.662;8.448;2023-04-12T04:49:49;1.67;;;1.30;;
37237;SDS011;23129;49.662;8.448;2023-04-12T04:52:25;7.18;;;1.10;;
37237;SDS011;23129;49.662;8.448;2023-04-12T04:55:00;5.00;;;1.83;;
37237;SDS011;23129;49.662;8.448;2023-04-12T05:00:04;3.95;;;1.52;;
37237;SDS011;23129;49.662;8.448;2023-04-12T05:05:12;6.10;;;2.05;;
37237;SDS011;23129;49.662;8.448;2023-04-12T05:07:43;4.35;;;2.08;;
37237;SDS011;23129;49.662;8.448;2023-04-12T05:10:13;4.55;;;1.77;;
37237;SDS011;23129;49.662;8.448;2023-04-12T05:12:42;6.32;;;1.77;;
37237;SDS011;23129;49.662;8.448;2023-04-12T05:15:13;3.13;;;1.65;;
37237;SDS011;23129;49.662;8.448;2023-04-12T05:17:42;11.02;;;1.80;;
37237;SDS011;23129;49.662;8.448;2023-04-12T05:20:12;2.33;;;1.70;;
37237;SDS011;23129;49.662;8.448;2023-04-12T05:22:41;2.28;;;1.60;;
37237;SDS011;23129;49.662;8.448;2023-04-12T05:25:10;6.80;;;2.13;;
37237;SDS011;23129;49.662;8.448;2023-04-12T05:27:46;11.48;;;2.53;;
37237;SDS011;23129;49.662;8.448;2023-04-12T05:30:18;2.97;;;1.63;;
37237;SDS011;23129;49.662;8.448;2023-04-12T05:32:48;8.07;;;1.70;;
37237;SDS011;23129;49.662;8.448;2023-04-12T05:35:19;2.50;;;1.30;;
37237;SDS011;23129;49.662;8.448;2023-04-12T05:37:53;6.05;;;2.13;;
37237;SDS011;23129;49.662;8.448;2023-04-12T05:40:22;4.10;;;1.85;;
37237;SDS011;23129;49.662;8.448;2023-04-12T05:42:52;4.13;;;1.27;;
37237;SDS011;23129;49.662;8.448;2023-04-12T05:45:21;4.47;;;2.05;;
37237;SDS011;23129;49.662;8.448;2023-04-12T05:47:50;6.70;;;1.92;;
37237;SDS011;23129;49.662;8.448;2023-04-12T05:50:20;3.65;;;1.95;;
37237;SDS011;23129;49.662;8.448;2023-04-12T05:52:49;4.15;;;1.77;;
37237;SDS011;23129;49.662;8.448;2023-04-12T05:57:53;9.65;;;2.05;;
37237;SDS011;23129;49.662;8.448;2023-04-12T06:00:21;3.88;;;1.52;;
37237;SDS011;23129;49.662;8.448;2023-04-12T06:02:51;2.85;;;1.63;;
37237;SDS011;23129;49.662;8.448;2023-04-12T06:05:22;5.30;;;2.10;;
37237;SDS011;23129;49.662;8.448;2023-04-12T06:07:51;3.38;;;1.63;;
37237;SDS011;23129;49.662;8.448;2023-04-12T06:10:20;5.80;;;1.63;;
37237;SDS011;23129;49.662;8.448;2023-04-12T06:12:52;5.47;;;2.65;;
37237;SDS011;23129;49.662;8.448;2023-04-12T06:15:21;6.53;;;1.50;;
37237;SDS011;23129;49.662;8.448;2023-04-12T06:17:52;6.55;;;2.30;;
37237;SDS011;23129;49.662;8.448;2023-04-12T06:20:23;1.92;;;1.63;;
37237;SDS011;23129;49.662;8.448;2023-04-12T06:22:52;7.15;;;1.90;;
37237;SDS011;23129;49.662;8.448;2023-04-12T06:25:21;16.02;;;2.35;;
37237;SDS011;23129;49.662;8.448;2023-04-12T06:27:51;7.22;;;2.25;;
37237;SDS011;23129;49.662;8.448;2023-04-12T06:30:22;3.45;;;2.15;;
37237;SDS011;23129;49.662;8.448;2023-04-12T06:32:52;2.67;;;1.92;;
37237;SDS011;23129;49.662;8.448;2023-04-12T06:35:23;4.38;;;2.28;;
37237;SDS011;23129;49.662;8.448;2023-04-12T06:37:52;4.82;;;2.13;;
37237;SDS011;23129;49.662;8.448;2023-04-12T06:40:20;4.70;;;2.13;;
37237;SDS011;23129;49.662;8.448;2023-04-12T06:42:49;3.45;;;2.10;;
37237;SDS011;23129;49.662;8.448;2023-04-12T06:45:21;4.88;;;1.60;;
37237;SDS011;23129;49.662;8.448;2023-04-12T06:47:50;9.65;;;2.45;;
37237;SDS011;23129;49.662;8.448;2023-04-12T06:50:23;9.30;;;2.25;;
37237;SDS011;23129;49.662;8.448;2023-04-12T06:52:52;8.05;;;1.75;;
37237;SDS011;23129;49.662;8.448;2023-04-12T06:55:21;6.72;;;2.45;;
37237;SDS011;23129;49.662;8.448;2023-04-12T06:57:52;2.40;;;1.73;;
37237;SDS011;23129;49.662;8.448;2023-04-12T07:00:21;2.72;;;1.90;;
37237;SDS011;23129;49.662;8.448;2023-04-12T07:02:51;4.55;;;2.20;;
37237;SDS011;23129;49.662;8.448;2023-04-12T07:05:20;3.75;;;2.08;;
37237;SDS011;23129;49.662;8.448;2023-04-12T07:07:50;2.65;;;2.30;;
37237;SDS011;23129;49.662;8.448;2023-04-12T07:10:19;6.53;;;2.30;;
37237;SDS011;23129;49.662;8.448;2023-04-12T07:12:48;3.67;;;2.05;;
37237;SDS011;23129;49.662;8.448;2023-04-12T07:15:17;6.45;;;2.40;;
37237;SDS011;23129;49.662;8.448;2023-04-12T07:17:46;8.25;;;2.17;;
37237;SDS011;23129;49.662;8.448;2023-04-12T07:20:15;8.60;;;2.40;;
37237;SDS011;23129;49.662;8.448;2023-04-12T07:22:45;5.05;;;2.28;;
37237;SDS011;23129;49.662;8.448;2023-04-12T07:25:14;6.60;;;2.30;;
37237;SDS011;23129;49.662;8.448;2023-04-12T07:27:43;3.70;;;1.80;;
37237;SDS011;23129;49.662;8.448;2023-04-12T07:30:12;8.82;;;2.28;;
37237;SDS011;23129;49.662;8.448;2023-04-12T07:32:41;3.65;;;2.63;;
37237;SDS011;23129;49.662;8.448;2023-04-12T07:35:10;7.55;;;2.50;;
37237;SDS011;23129;49.662;8.448;2023-04-12T07:37:39;3.03;;;1.75;;
37237;SDS011;23129;49.662;8.448;2023-04-12T07:40:09;5.07;;;2.58;;
37237;SDS011;23129;49.662;8.448;2023-04-12T07:42:38;3.67;;;2.17;;
37237;SDS011;23129;49.662;8.448;2023-04-12T07:45:07;5.35;;;2.10;;
37237;SDS011;23129;49.662;8.448;2023-04-12T07:47:37;3.53;;;2.13;;
37237;SDS011;23129;49.662;8.448;2023-04-12T07:50:06;5.03;;;2.03;;
37237;SDS011;23129;49.662;8.448;2023-04-12T07:52:38;6.10;;;2.22;;
37237;SDS011;23129;49.662;8.448;2023-04-12T07:55:07;5.15;;;1.92;;
37237;SDS011;23129;49.662;8.448;2023-04-12T07:57:37;4.22;;;2.17;;
37237;SDS011;23129;49.662;8.448;2023-04-12T08:00:07;5.90;;;2.15;;
37237;SDS011;23129;49.662;8.448;2023-04-12T08:02:39;5.13;;;2.55;;
37237;SDS011;23129;49.662;8.448;2023-04-12T08:05:08;3.30;;;1.63;;
37237;SDS011;23129;49.662;8.448;2023-04-12T08:07:37;8.98;;;2.47;;
37237;SDS011;23129;49.662;8.448;2023-04-12T08:10:07;7.10;;;2.17;;
37237;SDS011;23129;49.662;8.448;2023-04-12T08:12:37;7.95;;;2.33;;
37237;SDS011;23129;49.662;8.448;2023-04-12T08:15:07;4.35;;;2.47;;
37237;SDS011;23129;49.662;8.448;2023-04-12T08:17:36;3.55;;;1.88;;
37237;SDS011;23129;49.662;8.448;2023-04-12T08:20:05;4.75;;;1.92;;
37237;SDS011;23129;49.662;8.448;2023-04-12T08:22:35;3.47;;;2.50;;
37237;SDS011;23129;49.662;8.448;2023-04-12T08:25:04;12.40;;;2.72;;
37237;SDS011;23129;49.662;8.448;2023-04-12T08:27:35;1.75;;;1.60;;
37237;SDS011;23129;49.662;8.448;2023-04-12T08:30:06;2.42;;;1.73;;
37237;SDS011;23129;49.662;8.448;2023-04-12T08:32:36;7.25;;;1.95;;
37237;SDS011;23129;49.662;8.448;2023-04-12T08:35:05;4.93;;;1.85;;
37237;SDS011;23129;49.662;8.448;2023-04-12T08:37:35;2.47;;;2.17;;
37237;SDS011;23129;49.662;8.448;2023-04-12T08:40:04;11.82;;;1.77;;
37237;SDS011;23129;49.662;8.448;2023-04-12T08:42:36;6.90;;;2.05;;
37237;SDS011;23129;49.662;8.448;2023-04-12T08:45:05;5.88;;;2.13;;
37237;SDS011;23129;49.662;8.448;2023-04-12T08:47:36;4.65;;;1.98;;
37237;SDS011;23129;49.662;8.448;2023-04-12T08:50:07;3.90;;;2.45;;
37237;SDS011;23129;49.662;8.448;2023-04-12T08:52:39;3.60;;;2.63;;
37237;SDS011;23129;49.662;8.448;2023-04-12T08:55:10;2.80;;;2.47;;
37237;SDS011;23129;49.662;8.448;2023-04-12T08:57:40;4.75;;;3.13;;
37237;SDS011;23129;49.662;8.448;2023-04-12T09:00:10;4.00;;;2.95;;
37237;SDS011;23129;49.662;8.448;2023-04-12T09:02:42;8.18;;;3.17;;
37237;SDS011;23129;49.662;8.448;2023-04-12T09:05:14;6.22;;;3.40;;
37237;SDS011;23129;49.662;8.448;2023-04-12T09:07:43;8.32;;;3.88;;
37237;SDS011;23129;49.662;8.448;2023-04-12T09:10:14;9.90;;;3.75;;
37237;SDS011;23129;49.662;8.448;2023-04-12T09:12:59;6.72;;;3.08;;
37237;SDS011;23129;49.662;8.448;2023-04-12T09:15:29;8.23;;;4.18;;
37237;SDS011;23129;49.662;8.448;2023-04-12T09:18:02;12.60;;;4.55;;
37237;SDS011;23129;49.662;8.448;2023-04-12T09:20:33;7.03;;;3.83;;
37237;SDS011;23129;49.662;8.448;2023-04-12T09:23:15;4.70;;;3.97;;
37237;SDS011;23129;49.662;8.448;2023-04-12T09:25:45;14.23;;;4.20;;
37237;SDS011;23129;49.662;8.448;2023-04-12T09:28:22;15.82;;;3.17;;
37237;SDS011;23129;49.662;8.448;2023-04-12T09:30:53;7.30;;;3.97;;
37237;SDS011;23129;49.662;8.448;2023-04-12T09:33:23;8.65;;;4.35;;
37237;SDS011;23129;49.662;8.448;2023-04-12T09:36:01;17.70;;;5.07;;
37237;SDS011;23129;49.662;8.448;2023-04-12T09:38:32;11.65;;;4.72;;
37237;SDS011;23129;49.662;8.448;2023-04-12T09:41:14;13.75;;;4.55;;
37237;SDS011;23129;49.662;8.448;2023-04-12T09:43:49;8.70;;;3.60;;
37237;SDS011;23129;49.662;8.448;2023-04-12T09:46:18;7.28;;;3.70;;
37237;SDS011;23129;49.662;8.448;2023-04-12T09:48:48;9.18;;;3.65;;
37237;SDS011;23129;49.662;8.448;2023-04-12T09:51:25;12.82;;;4.82;;
37237;SDS011;23129;49.662;8.448;2023-04-12T09:53:56;18.30;;;4.47;;
37237;SDS011;23129;49.662;8.448;2023-04-12T09:56:28;6.15;;;3.30;;
37237;SDS011;23129;49.662;8.448;2023-04-12T09:59:00;12.40;;;5.32;;
37237;SDS011;23129;49.662;8.448;2023-04-12T10:01:32;9.40;;;4.13;;
37237;SDS011;23129;49.662;8.448;2023-04-12T10:04:02;8.02;;;4.65;;
37237;SDS011;23129;49.662;8.448;2023-04-12T10:06:34;13.93;;;4.20;;
37237;SDS011;23129;49.662;8.448;2023-04-12T10:09:04;12.30;;;5.45;;
37237;SDS011;23129;49.662;8.448;2023-04-12T10:11:34;8.80;;;4.13;;
37237;SDS011;23129;49.662;8.448;2023-04-12T10:14:08;9.85;;;4.13;;
37237;SDS011;23129;49.662;8.448;2023-04-12T10:16:40;7.82;;;4.32;;
37237;SDS011;23129;49.662;8.448;2023-04-12T10:19:10;11.60;;;4.18;;
37237;SDS011;23129;49.662;8.448;2023-04-12T10:21:39;9.27;;;4.35;;
37237;SDS011;23129;49.662;8.448;2023-04-12T10:24:08;9.43;;;5.55;;
37237;SDS011;23129;49.662;8.448;2023-04-12T10:26:40;9.70;;;4.35;;
37237;SDS011;23129;49.662;8.448;2023-04-12T10:29:23;8.77;;;5.10;;
37237;SDS011;23129;49.662;8.448;2023-04-12T10:31:53;9.82;;;4.32;;
37237;SDS011;23129;49.662;8.448;2023-04-12T10:34:25;6.97;;;4.50;;
37237;SDS011;23129;49.662;8.448;2023-04-12T10:36:56;9.15;;;3.33;;
37237;SDS011;23129;49.662;8.448;2023-04-12T10:39:35;11.88;;;5.07;;
37237;SDS011;23129;49.662;8.448;2023-04-12T10:42:18;16.95;;;6.25;;
37237;SDS011;23129;49.662;8.448;2023-04-12T10:44:51;13.95;;;6.38;;
37237;SDS011;23129;49.662;8.448;2023-04-12T10:50:29;8.00;;;3.73;;
37237;SDS011;23129;49.662;8.448;2023-04-12T10:53:21;7.53;;;4.93;;
37237;SDS011;23129;49.662;8.448;2023-04-12T10:55:54;5.78;;;3.65;;
37237;SDS011;23129;49.662;8.448;2023-04-12T11:01:27;13.40;;;3.97;;
37237;SDS011;23129;49.662;8.448;2023-04-12T11:04:04;6.32;;;3.00;;
37237;SDS011;23129;49.662;8.448;2023-04-12T11:07:07;8.38;;;4.63;;
37237;SDS011;23129;49.662;8.448;2023-04-12T11:09:39;6.43;;;3.78;;
37237;SDS011;23129;49.662;8.448;2023-04-12T11:12:19;7.05;;;3.97;;
37237;SDS011;23129;49.662;8.448;2023-04-12T11:14:54;10.73;;;3.92;;
37237;SDS011;23129;49.662;8.448;2023-04-12T11:17:38;13.10;;;4.85;;
37237;SDS011;23129;49.662;8.448;2023-04-12T11:20:09;9.18;;;3.75;;
37237;SDS011;23129;49.662;8.448;2023-04-12T11:22:39;8.18;;;3.47;;
37237;SDS011;23129;49.662;8.448;2023-04-12T11:25:08;9.05;;;4.35;;
37237;SDS011;23129;49.662;8.448;2023-04-12T11:27:47;7.80;;;2.97;;
37237;SDS011;23129;49.662;8.448;2023-04-12T11:30:17;5.55;;;3.10;;
37237;SDS011;23129;49.662;8.448;2023-04-12T11:32:48;4.47;;;3.65;;
37237;SDS011;23129;49.662;8.448;2023-04-12T11:35:17;5.40;;;3.92;;
37237;SDS011;23129;49.662;8.448;2023-04-12T11:37:53;4.82;;;3.03;;
37237;SDS011;23129;49.662;8.448;2023-04-12T11:40:24;12.82;;;5.70;;
37237;SDS011;23129;49.662;8.448;2023-04-12T11:42:53;5.85;;;3.50;;
37237;SDS011;23129;49.662;8.448;2023-04-12T11:45:23;13.20;;;3.92;;
37237;SDS011;23129;49.662;8.448;2023-04-12T11:47:53;5.22;;;2.67;;
37237;SDS011;23129;49.662;8.448;2023-04-12T11:50:27;6.45;;;2.67;;
37237;SDS011;23129;49.662;8.448;2023-04-12T11:53:08;2.83;;;1.88;;
37237;SDS011;23129;49.662;8.448;2023-04-12T11:55:38;7.82;;;2.10;;
37237;SDS011;23129;49.662;8.448;2023-04-12T11:58:07;6.13;;;1.88;;
37237;SDS011;23129;49.662;8.448;2023-04-12T12:00:36;4.65;;;2.60;;
37237;SDS011;23129;49.662;8.448;2023-04-12T12:03:09;4.22;;;2.50;;
37237;SDS011;23129;49.662;8.448;2023-04-12T12:05:38;9.18;;;2.90;;
37237;SDS011;23129;49.662;8.448;2023-04-12T12:08:09;5.95;;;2.72;;
37237;SDS011;23129;49.662;8.448;2023-04-12T12:10:38;18.45;;;4.13;;
37237;SDS011;23129;49.662;8.448;2023-04-12T12:13:21;5.18;;;2.30;;
37237;SDS011;23129;49.662;8.448;2023-04-12T12:15:50;7.38;;;2.47;;
37237;SDS011;23129;49.662;8.448;2023-04-12T12:18:25;3.58;;;2.75;;
37237;SDS011;23129;49.662;8.448;2023-04-12T12:20:54;8.07;;;3.72;;
37237;SDS011;23129;49.662;8.448;2023-04-12T12:23:27;5.82;;;2.38;;
37237;SDS011;23129;49.662;8.448;2023-04-12T12:25:57;7.38;;;2.72;;
37237;SDS011;23129;49.662;8.448;2023-04-12T12:28:43;7.05;;;2.13;;
37237;SDS011;23129;49.662;8.448;2023-04-12T12:31:18;4.28;;;2.20;;
37237;SDS011;23129;49.662;8.448;2023-04-12T12:33:52;4.65;;;2.63;;
37237;SDS011;23129;49.662;8.448;2023-04-12T12:36:27;2.63;;;1.58;;
37237;SDS011;23129;49.662;8.448;2023-04-12T12:39:02;5.45;;;2.42;;
37237;SDS011;23129;49.662;8.448;2023-04-12T12:41:36;4.18;;;2.53;;
37237;SDS011;23129;49.662;8.448;2023-04-12T12:44:06;5.18;;;2.08;;
37237;SDS011;23129;49.662;8.448;2023-04-12T12:46:36;4.65;;;1.73;;
37237;SDS011;23129;49.662;8.448;2023-04-12T12:49:20;4.05;;;2.45;;
37237;SDS011;23129;49.662;8.448;2023-04-12T12:51:49;4.25;;;1.75;;
37237;SDS011;23129;49.662;8.448;2023-04-12T12:54:18;8.30;;;2.58;;
37237;SDS011;23129;49.662;8.448;2023-04-12T12:57:04;3.67;;;1.90;;
37237;SDS011;23129;49.662;8.448;2023-04-12T12:59:33;4.80;;;2.35;;
37237;SDS011;23129;49.662;8.448;2023-04-12T13:02:02;3.97;;;2.92;;
37237;SDS011;23129;49.662;8.448;2023-04-12T13:04:34;3.38;;;2.63;;
37237;SDS011;23129;49.662;8.448;2023-04-12T13:07:02;5.35;;;2.15;;
37237;SDS011;23129;49.662;8.448;2023-04-12T13:09:31;2.17;;;1.70;;
37237;SDS011;23129;49.662;8.448;2023-04-12T13:12:00;5.15;;;2.17;;
37237;SDS011;23129;49.662;8.448;2023-04-12T13:14:29;2.70;;;2.25;;
37237;SDS011;23129;49.662;8.448;2023-04-12T13:16:58;1.85;;;1.75;;
37237;SDS011;23129;49.662;8.448;2023-04-12T13:19:27;2.85;;;1.70;;
37237;SDS011;23129;49.662;8.448;2023-04-12T13:21:58;8.98;;;2.25;;
37237;SDS011;23129;49.662;8.448;2023-04-12T13:24:26;5.18;;;2.72;;
37237;SDS011;23129;49.662;8.448;2023-04-12T13:26:55;4.05;;;2.25;;
37237;SDS011;23129;49.662;8.448;2023-04-12T13:29:24;4.38;;;1.92;;
37237;SDS011;23129;49.662;8.448;2023-04-12T13:31:53;3.13;;;2.15;;
37237;SDS011;23129;49.662;8.448;2023-04-12T13:34:22;1.92;;;1.73;;
37237;SDS011;23129;49.662;8.448;2023-04-12T13:36:52;5.10;;;2.10;;
37237;SDS011;23129;49.662;8.448;2023-04-12T13:39:22;7.03;;;3.08;;
37237;SDS011;23129;49.662;8.448;2023-04-12T13:41:51;6.78;;;2.70;;
37237;SDS011;23129;49.662;8.448;2023-04-12T13:44:20;2.67;;;2.28;;
37237;SDS011;23129;49.662;8.448;2023-04-12T13:46:49;11.15;;;2.50;;
37237;SDS011;23129;49.662;8.448;2023-04-12T13:49:17;4.63;;;3.17;;
37237;SDS011;23129;49.662;8.448;2023-04-12T13:51:46;5.18;;;2.67;;
37237;SDS011;23129;49.662;8.448;2023-04-12T13:54:15;4.90;;;2.05;;
37237;SDS011;23129;49.662;8.448;2023-04-12T13:56:46;4.63;;;1.42;;
37237;SDS011;23129;49.662;8.448;2023-04-12T13:59:15;3.50;;;1.58;;
37237;SDS011;23129;49.662;8.448;2023-04-12T14:01:44;1.00;;;0.60;;
37237;SDS011;23129;49.662;8.448;2023-04-12T14:04:13;0.80;;;0.40;;
37237;SDS011;23129;49.662;8.448;2023-04-12T14:06:42;0.43;;;0.35;;
37237;SDS011;23129;49.662;8.448;2023-04-12T14:09:21;2.88;;;0.35;;
37237;SDS011;23129;49.662;8.448;2023-04-12T14:11:52;0.75;;;0.57;;
37237;SDS011;23129;49.662;8.448;2023-04-12T14:14:22;0.50;;;0.50;;
37237;SDS011;23129;49.662;8.448;2023-04-12T14:16:52;0.30;;;0.30;;
37237;SDS011;23129;49.662;8.448;2023-04-12T14:19:23;0.30;;;0.30;;
37237;SDS011;23129;49.662;8.448;2023-04-12T14:21:52;2.22;;;0.20;;
37237;SDS011;23129;49.662;8.448;2023-04-12T14:24:21;0.50;;;0.30;;
37237;SDS011;23129;49.662;8.448;2023-04-12T14:26:53;2.15;;;0.50;;
37237;SDS011;23129;49.662;8.448;2023-04-12T14:29:22;0.82;;;0.40;;
37237;SDS011;23129;49.662;8.448;2023-04-12T14:31:52;0.75;;;0.50;;
37237;SDS011;23129;49.662;8.448;2023-04-12T14:34:21;1.08;;;0.30;;
37237;SDS011;23129;49.662;8.448;2023-04-12T14:36:50;1.45;;;0.70;;
37237;SDS011;23129;49.662;8.448;2023-04-12T14:39:19;0.30;;;0.30;;
37237;SDS011;23129;49.662;8.448;2023-04-12T14:41:49;1.17;;;0.50;;
37237;SDS011;23129;49.662;8.448;2023-04-12T14:44:20;1.08;;;0.80;;
37237;SDS011;23129;49.662;8.448;2023-04-12T14:46:51;0.43;;;0.43;;
37237;SDS011;23129;49.662;8.448;2023-04-12T14:49:21;0.95;;;0.50;;
37237;SDS011;23129;49.662;8.448;2023-04-12T14:51:49;0.63;;;0.63;;
37237;SDS011;23129;49.662;8.448;2023-04-12T14:54:19;2.50;;;0.73;;
37237;SDS011;23129;49.662;8.448;2023-04-12T14:56:48;0.85;;;0.70;;
37237;SDS011;23129;49.662;8.448;2023-04-12T14:59:21;2.05;;;0.80;;
37237;SDS011;23129;49.662;8.448;2023-04-12T15:01:55;2.88;;;0.90;;
37237;SDS011;23129;49.662;8.448;2023-04-12T15:04:25;0.57;;;0.57;;
37237;SDS011;23129;49.662;8.448;2023-04-12T15:06:53;4.07;;;1.10;;
37237;SDS011;23129;49.662;8.448;2023-04-12T15:09:22;1.85;;;1.00;;
37237;SDS011;23129;49.662;8.448;2023-04-12T15:11:51;5.43;;;1.00;;
37237;SDS011;23129;49.662;8.448;2023-04-12T15:14:28;1.42;;;0.75;;
37237;SDS011;23129;49.662;8.448;2023-04-12T15:16:57;1.45;;;0.70;;
37237;SDS011;23129;49.662;8.448;2023-04-12T15:19:25;0.73;;;0.60;;
37237;SDS011;23129;49.662;8.448;2023-04-12T15:21:55;1.10;;;0.75;;
37237;SDS011;23129;49.662;8.448;2023-04-12T15:24:25;0.70;;;0.70;;